Time;durP1;ratioP1;P1;durP2;ratioP2;P2;SDS_P1;SDS_P2;PMS_P1;PMS_P2;Temp;Humidity;BMP_temperature;BMP_pressure;BME280_temperature;BME280_humidity;BME280_pressure;Samples;Min_cycle;Max_cycle;Signal;HPM_P1;HPM_P2
2021/04/24 00:01:50;;;;;;;21.60;19.40;;;;;;;;;;4987511;28;20181;-42
2021/04/24 00:04:16;;;;;;;18.33;16.40;;;;;;;;;;4982708;28;20225;-42
2021/04/24 00:06:41;;;;;;;18.60;16.60;;;;;;;;;;4970559;28;20178;-42
2021/04/24 00:09:06;;;;;;;20.40;16.67;;;;;;;;;;4969062;28;20179;-42
2021/04/24 00:11:32;;;;;;;18.93;16.57;;;;;;;;;;4981853;28;20217;-42
2021/04/24 00:13:57;;;;;;;18.40;16.30;;;;;;;;;;4969397;28;20175;-42
2021/04/24 00:16:22;;;;;;;21.33;16.73;;;;;;;;;;4974038;28;20249;-42
2021/04/24 00:18:48;;;;;;;18.30;16.40;;;;;;;;;;4985260;28;20542;-42
2021/04/24 00:21:13;;;;;;;22.17;17.70;;;;;;;;;;4976266;28;20209;-42
2021/04/24 00:23:38;;;;;;;19.40;17.03;;;;;;;;;;4980056;28;20178;-41
2021/04/24 00:26:04;;;;;;;21.10;17.33;;;;;;;;;;4969531;28;20178;-42
2021/04/24 00:28:29;;;;;;;19.13;17.13;;;;;;;;;;4981744;28;20589;-41
2021/04/24 00:30:54;;;;;;;21.13;17.27;;;;;;;;;;4969543;28;20653;-41
2021/04/24 00:33:19;;;;;;;19.57;17.50;;;;;;;;;;4978494;28;20177;-42
2021/04/24 00:35:44;;;;;;;22.70;18.27;;;;;;;;;;4988961;28;20236;-41
2021/04/24 00:38:10;;;;;;;20.83;16.97;;;;;;;;;;4984799;28;20206;-41
2021/04/24 00:40:35;;;;;;;23.50;16.60;;;;;;;;;;4989522;28;20230;-41
2021/04/24 00:43:01;;;;;;;17.27;15.47;;;;;;;;;;4977873;28;20651;-42
2021/04/24 00:45:26;;;;;;;17.57;15.80;;;;;;;;;;4982255;28;20178;-41
2021/04/24 00:47:52;;;;;;;17.77;15.87;;;;;;;;;;4980123;28;20590;-40
2021/04/24 00:50:19;;;;;;;17.00;15.20;;;;;;;;;;4978633;28;20276;-41
2021/04/24 00:52:44;;;;;;;19.87;15.87;;;;;;;;;;4976081;28;20605;-41
2021/04/24 00:55:10;;;;;;;16.10;14.40;;;;;;;;;;4983843;28;20605;-41
2021/04/24 00:57:35;;;;;;;17.30;15.43;;;;;;;;;;4987095;28;20183;-42
2021/04/24 01:00:00;;;;;;;19.60;15.77;;;;;;;;;;4971162;28;20210;-41
2021/04/24 01:02:25;;;;;;;17.93;15.57;;;;;;;;;;4983454;28;20182;-43
2021/04/24 01:04:50;;;;;;;20.87;14.97;;;;;;;;;;4980061;28;20216;-40
2021/04/24 01:07:16;;;;;;;19.33;14.80;;;;;;;;;;4973823;28;20179;-41
2021/04/24 01:09:41;;;;;;;16.77;14.27;;;;;;;;;;4982633;28;20186;-41
2021/04/24 01:12:06;;;;;;;16.30;13.27;;;;;;;;;;4992702;28;20184;-42
2021/04/24 01:14:32;;;;;;;17.40;14.87;;;;;;;;;;4975726;28;20210;-41
2021/04/24 01:16:57;;;;;;;17.80;14.20;;;;;;;;;;4982976;28;20232;-41
2021/04/24 01:19:26;;;;;;;21.87;15.90;;;;;;;;;;4982320;28;20600;-41
2021/04/24 01:21:52;;;;;;;20.73;15.10;;;;;;;;;;4972082;28;20190;-42
2021/04/24 01:24:17;;;;;;;18.40;13.80;;;;;;;;;;4985879;28;21193;-41
2021/04/24 01:26:43;;;;;;;21.73;13.53;;;;;;;;;;4990603;28;20170;-43
2021/04/24 01:29:08;;;;;;;15.50;14.00;;;;;;;;;;4977703;28;20604;-42
2021/04/24 01:31:34;;;;;;;20.70;14.73;;;;;;;;;;4977545;28;20179;-41
2021/04/24 01:33:59;;;;;;;14.30;12.97;;;;;;;;;;4974719;28;20187;-43
2021/04/24 01:36:25;;;;;;;16.07;14.30;;;;;;;;;;4977839;28;20599;-41
2021/04/24 01:38:50;;;;;;;15.47;13.20;;;;;;;;;;4972693;28;20183;-42
2021/04/24 01:41:15;;;;;;;15.45;13.85;;;;;;;;;;4974758;28;20197;-42
2021/04/24 01:43:40;;;;;;;15.98;14.38;;;;;;;;;;4973045;28;20391;-42
2021/04/24 01:46:05;;;;;;;16.60;14.90;;;;;;;;;;4978311;28;20327;-42
2021/04/24 01:48:30;;;;;;;19.90;14.63;;;;;;;;;;4975921;28;20816;-40
2021/04/24 01:50:56;;;;;;;17.98;14.57;;;;;;;;;;4987679;28;20174;-41
2021/04/24 01:53:22;;;;;;;18.40;14.70;;;;;;;;;;4981353;28;20186;-42
2021/04/24 01:55:47;;;;;;;18.50;16.43;;;;;;;;;;4985213;28;20246;-41
2021/04/24 01:58:16;;;;;;;16.27;14.70;;;;;;;;;;4976425;28;21146;-40
2021/04/24 02:00:49;;;;;;;18.77;15.30;;;;;;;;;;4978281;28;20208;-41
2021/04/24 02:03:15;;;;;;;16.20;13.83;;;;;;;;;;4972343;28;20568;-41
2021/04/24 02:05:41;;;;;;;20.40;14.70;;;;;;;;;;4986596;28;20740;-41
2021/04/24 02:08:21;;;;;;;18.23;14.77;;;;;;;;;;4972763;28;20599;-40
2021/04/24 02:10:48;;;;;;;17.53;15.20;;;;;;;;;;4980081;28;20609;-41
2021/04/24 02:13:16;;;;;;;16.63;14.83;;;;;;;;;;4973878;28;20597;-41
2021/04/24 02:15:41;;;;;;;15.07;13.57;;;;;;;;;;4991326;28;21101;-41
2021/04/24 02:18:07;;;;;;;15.43;13.83;;;;;;;;;;4987869;28;20617;-42
2021/04/24 02:20:32;;;;;;;16.83;13.50;;;;;;;;;;4980474;28;20214;-42
2021/04/24 02:22:57;;;;;;;15.57;13.97;;;;;;;;;;4975307;28;20626;-43
2021/04/24 02:25:23;;;;;;;14.93;13.30;;;;;;;;;;4971904;28;20221;-42
2021/04/24 02:27:48;;;;;;;16.77;12.73;;;;;;;;;;4975545;28;20175;-42
2021/04/24 02:30:15;;;;;;;15.20;13.47;;;;;;;;;;4988007;28;20186;-42
2021/04/24 02:32:41;;;;;;;14.27;12.80;;;;;;;;;;4984402;28;20183;-42
2021/04/24 02:35:07;;;;;;;16.63;14.47;;;;;;;;;;4973450;28;20712;-42
2021/04/24 02:37:32;;;;;;;18.30;14.73;;;;;;;;;;4977511;28;20276;-42
2021/04/24 02:39:58;;;;;;;14.00;12.60;;;;;;;;;;4975205;28;20704;-42
2021/04/24 02:42:24;;;;;;;19.13;14.07;;;;;;;;;;4978181;28;20550;-42
2021/04/24 02:44:51;;;;;;;19.40;13.90;;;;;;;;;;4971269;28;20175;-43
2021/04/24 02:47:18;;;;;;;14.73;13.27;;;;;;;;;;4985061;28;20597;-42
2021/04/24 02:49:43;;;;;;;14.47;12.97;;;;;;;;;;4985675;28;20609;-42
2021/04/24 02:52:08;;;;;;;14.90;12.90;;;;;;;;;;4974617;28;20606;-42
2021/04/24 02:54:34;;;;;;;16.00;12.77;;;;;;;;;;4974930;28;20201;-42
2021/04/24 02:56:59;;;;;;;14.93;12.90;;;;;;;;;;4980370;28;20260;-42
2021/04/24 02:59:25;;;;;;;14.20;12.03;;;;;;;;;;4982178;28;20422;-42
2021/04/24 03:01:50;;;;;;;13.90;12.50;;;;;;;;;;4988056;28;20189;-42
2021/04/24 03:04:16;;;;;;;13.97;12.57;;;;;;;;;;4990390;28;20173;-42
2021/04/24 03:06:41;;;;;;;20.07;12.57;;;;;;;;;;4981400;28;20195;-42
2021/04/24 03:09:06;;;;;;;15.73;12.90;;;;;;;;;;4970951;28;20213;-41
2021/04/24 03:11:32;;;;;;;12.57;11.30;;;;;;;;;;4980882;28;20200;-42
2021/04/24 03:13:58;;;;;;;14.50;13.00;;;;;;;;;;4972429;28;20170;-47
2021/04/24 03:16:23;;;;;;;15.30;12.67;;;;;;;;;;4971865;28;20660;-43
2021/04/24 03:18:49;;;;;;;13.23;11.93;;;;;;;;;;4970979;28;20269;-41
2021/04/24 03:21:14;;;;;;;18.50;12.97;;;;;;;;;;4970766;28;20207;-41
2021/04/24 03:23:39;;;;;;;17.70;13.03;;;;;;;;;;4980117;28;20189;-42
2021/04/24 03:26:04;;;;;;;15.18;12.90;;;;;;;;;;4981717;28;20166;-41
2021/04/24 03:28:30;;;;;;;14.30;12.80;;;;;;;;;;4972839;28;20269;-42
2021/04/24 03:30:55;;;;;;;17.23;12.20;;;;;;;;;;4988190;28;20942;-41
2021/04/24 03:33:20;;;;;;;16.30;12.80;;;;;;;;;;4979504;28;20182;-43
2021/04/24 03:35:45;;;;;;;12.18;10.98;;;;;;;;;;4970734;28;20185;-41
2021/04/24 03:38:10;;;;;;;15.20;13.70;;;;;;;;;;4971220;28;20373;-41
2021/04/24 03:40:35;;;;;;;14.57;12.48;;;;;;;;;;4980581;28;20234;-41
2021/04/24 03:43:01;;;;;;;16.80;13.40;;;;;;;;;;4982206;28;20173;-41
2021/04/24 03:45:26;;;;;;;15.57;11.90;;;;;;;;;;4969999;28;20175;-41
2021/04/24 03:47:53;;;;;;;14.40;11.80;;;;;;;;;;4970090;28;20519;-42
2021/04/24 03:50:19;;;;;;;14.87;13.10;;;;;;;;;;4970697;28;20240;-42
2021/04/24 03:52:44;;;;;;;14.40;13.00;;;;;;;;;;4978454;28;20692;-41
2021/04/24 03:55:10;;;;;;;15.87;13.63;;;;;;;;;;4985697;28;20689;-41
2021/04/24 03:57:35;;;;;;;17.73;13.07;;;;;;;;;;4970396;28;20238;-41
2021/04/24 04:00:01;;;;;;;13.70;12.30;;;;;;;;;;4976199;28;20671;-42
2021/04/24 04:02:26;;;;;;;15.70;12.37;;;;;;;;;;4981920;28;20202;-41
2021/04/24 04:04:52;;;;;;;15.00;12.32;;;;;;;;;;4974842;28;20182;-42
2021/04/24 04:07:17;;;;;;;15.20;12.70;;;;;;;;;;4980180;28;20540;-42
2021/04/24 04:09:42;;;;;;;12.40;11.30;;;;;;;;;;4968269;28;20701;-43
2021/04/24 04:12:07;;;;;;;16.77;13.82;;;;;;;;;;4973177;28;20709;-43
2021/04/24 04:14:32;;;;;;;14.40;12.20;;;;;;;;;;4972553;28;20201;-43
2021/04/24 04:16:58;;;;;;;15.48;13.85;;;;;;;;;;4972108;28;20178;-43
2021/04/24 04:19:23;;;;;;;17.27;12.97;;;;;;;;;;4971287;28;20268;-42
2021/04/24 04:21:48;;;;;;;15.13;13.50;;;;;;;;;;4980102;28;20177;-42
2021/04/24 04:24:13;;;;;;;16.80;13.27;;;;;;;;;;4978393;28;20265;-43
2021/04/24 04:26:38;;;;;;;14.85;12.00;;;;;;;;;;4970078;28;20205;-42
2021/04/24 04:29:03;;;;;;;14.13;12.43;;;;;;;;;;4968944;28;20340;-41
2021/04/24 04:31:29;;;;;;;13.87;11.90;;;;;;;;;;4978001;28;20182;-42
2021/04/24 04:33:54;;;;;;;15.27;13.07;;;;;;;;;;4976642;28;20194;-42
2021/04/24 04:36:19;;;;;;;15.03;11.93;;;;;;;;;;4975217;28;20181;-41
2021/04/24 04:38:44;;;;;;;13.60;11.97;;;;;;;;;;4970617;28;20345;-42
2021/04/24 04:41:10;;;;;;;16.03;12.77;;;;;;;;;;4976373;28;20313;-41
2021/04/24 04:43:35;;;;;;;13.83;12.37;;;;;;;;;;4972170;28;20178;-42
2021/04/24 04:46:00;;;;;;;14.37;12.97;;;;;;;;;;4969087;28;20261;-42
2021/04/24 04:48:25;;;;;;;15.77;14.10;;;;;;;;;;4969171;28;20228;-42
2021/04/24 04:50:50;;;;;;;14.10;12.13;;;;;;;;;;4969991;28;20213;-42
2021/04/24 04:53:15;;;;;;;14.20;12.70;;;;;;;;;;4972462;28;20179;-42
2021/04/24 04:55:41;;;;;;;14.27;12.45;;;;;;;;;;4975887;28;20179;-42
2021/04/24 04:58:06;;;;;;;14.63;13.13;;;;;;;;;;4968508;28;20179;-42
2021/04/24 05:00:31;;;;;;;17.30;13.70;;;;;;;;;;4968253;28;20269;-42
2021/04/24 05:02:56;;;;;;;13.17;11.70;;;;;;;;;;4969498;28;20362;-42
2021/04/24 05:05:22;;;;;;;14.33;12.00;;;;;;;;;;4973046;28;20173;-42
2021/04/24 05:07:49;;;;;;;13.87;12.30;;;;;;;;;;4976231;28;20187;-42
2021/04/24 05:10:14;;;;;;;15.50;13.50;;;;;;;;;;4969125;28;20194;-43
2021/04/24 05:12:39;;;;;;;15.93;13.10;;;;;;;;;;4969241;28;21028;-42
2021/04/24 05:15:05;;;;;;;13.60;12.10;;;;;;;;;;4966486;28;20186;-42
2021/04/24 05:17:30;;;;;;;14.70;13.13;;;;;;;;;;4968597;28;20186;-42
2021/04/24 05:19:55;;;;;;;14.27;12.70;;;;;;;;;;4968120;28;20210;-42
2021/04/24 05:22:20;;;;;;;15.60;12.95;;;;;;;;;;4968336;28;20176;-42
2021/04/24 05:24:46;;;;;;;16.70;13.63;;;;;;;;;;4966820;28;20172;-43
2021/04/24 05:27:11;;;;;;;14.47;12.50;;;;;;;;;;4972070;28;20182;-42
2021/04/24 05:29:36;;;;;;;16.50;12.85;;;;;;;;;;4971435;28;20564;-43
2021/04/24 05:32:02;;;;;;;14.53;13.03;;;;;;;;;;4971380;28;20531;-42
2021/04/24 05:34:27;;;;;;;13.40;12.00;;;;;;;;;;4971997;28;20188;-40
2021/04/24 05:36:53;;;;;;;14.85;13.35;;;;;;;;;;4970757;28;20700;-41
2021/04/24 05:39:18;;;;;;;14.33;12.93;;;;;;;;;;4968970;28;20218;-41
2021/04/24 05:41:44;;;;;;;13.70;12.38;;;;;;;;;;4970644;28;20626;-41
2021/04/24 05:44:09;;;;;;;15.10;13.50;;;;;;;;;;4969565;28;20190;-42
2021/04/24 05:46:34;;;;;;;15.55;13.90;;;;;;;;;;4971981;28;20188;-41
2021/04/24 05:48:59;;;;;;;14.77;13.27;;;;;;;;;;4973673;28;20188;-41
2021/04/24 05:51:24;;;;;;;13.90;12.43;;;;;;;;;;4967033;28;20196;-41
2021/04/24 05:53:51;;;;;;;13.40;12.10;;;;;;;;;;4968753;28;20244;-42
2021/04/24 05:56:17;;;;;;;14.50;13.03;;;;;;;;;;4975959;28;20226;-42
2021/04/24 05:58:43;;;;;;;17.60;14.17;;;;;;;;;;4968257;28;21077;-42
2021/04/24 06:01:08;;;;;;;16.20;14.50;;;;;;;;;;4968387;28;20666;-42
2021/04/24 06:03:33;;;;;;;19.00;14.87;;;;;;;;;;4969867;28;20216;-42
2021/04/24 06:05:59;;;;;;;14.33;12.93;;;;;;;;;;4967334;28;20208;-43
2021/04/24 06:08:24;;;;;;;17.90;12.75;;;;;;;;;;4974135;28;20222;-42
2021/04/24 06:10:49;;;;;;;14.68;13.15;;;;;;;;;;4984948;28;20196;-44
2021/04/24 06:13:14;;;;;;;15.43;13.37;;;;;;;;;;4972358;28;20217;-43
2021/04/24 06:15:39;;;;;;;14.70;13.10;;;;;;;;;;4977476;28;20267;-42
2021/04/24 06:18:05;;;;;;;13.60;12.00;;;;;;;;;;4980546;28;20198;-42
2021/04/24 06:20:30;;;;;;;13.30;12.00;;;;;;;;;;4973294;28;20304;-42
2021/04/24 06:22:55;;;;;;;15.50;13.40;;;;;;;;;;4972495;28;20270;-42
2021/04/24 06:25:21;;;;;;;15.73;13.50;;;;;;;;;;4971109;28;20184;-42
2021/04/24 06:27:46;;;;;;;15.07;11.57;;;;;;;;;;4973347;28;20174;-42
2021/04/24 06:30:12;;;;;;;14.83;13.10;;;;;;;;;;4967949;28;20615;-42
2021/04/24 06:32:37;;;;;;;12.00;10.67;;;;;;;;;;4983984;28;20233;-42
2021/04/24 06:35:04;;;;;;;10.23;9.10;;;;;;;;;;4973396;28;20613;-42
2021/04/24 06:37:29;;;;;;;11.90;9.20;;;;;;;;;;4969944;28;20214;-42
2021/04/24 06:39:54;;;;;;;12.03;9.70;;;;;;;;;;4965524;28;20666;-42
2021/04/24 07:11:57;;;;;;;10.40;8.90;;;;;;;;;;5505551;22;20709;-43
2021/04/24 07:14:22;;;;;;;10.63;7.30;;;;;;;;;;5004982;28;20651;-43
2021/04/24 07:16:47;;;;;;;10.00;7.87;;;;;;;;;;5008422;28;20753;-44
2021/04/24 07:19:13;;;;;;;13.57;8.60;;;;;;;;;;5012860;28;20323;-44
2021/04/24 07:21:38;;;;;;;13.13;8.57;;;;;;;;;;5006075;28;20188;-43
2021/04/24 07:24:03;;;;;;;10.17;7.80;;;;;;;;;;5007166;28;20177;-44
2021/04/24 07:26:29;;;;;;;12.80;11.50;;;;;;;;;;5010704;28;20211;-44
2021/04/24 07:28:54;;;;;;;11.97;9.40;;;;;;;;;;5009184;28;20173;-44
2021/04/24 07:31:20;;;;;;;10.47;7.90;;;;;;;;;;5008118;28;20212;-44
2021/04/24 07:33:45;;;;;;;13.10;8.50;;;;;;;;;;5011415;28;20188;-44
2021/04/24 07:36:10;;;;;;;15.43;7.77;;;;;;;;;;5014213;28;20690;-44
2021/04/24 07:38:36;;;;;;;11.20;8.38;;;;;;;;;;5012985;28;20247;-43
2021/04/24 07:41:01;;;;;;;11.07;9.50;;;;;;;;;;5008782;28;20297;-42
2021/04/24 07:43:26;;;;;;;11.38;8.35;;;;;;;;;;5008392;28;20177;-43
2021/04/24 07:45:51;;;;;;;13.07;9.00;;;;;;;;;;5017090;28;20256;-44
2021/04/24 07:48:16;;;;;;;13.40;7.90;;;;;;;;;;5014055;28;20768;-43
2021/04/24 07:50:42;;;;;;;11.77;8.47;;;;;;;;;;5012351;28;20188;-44
2021/04/24 07:53:07;;;;;;;9.50;8.20;;;;;;;;;;5016981;28;20181;-44
2021/04/24 07:55:32;;;;;;;14.20;8.43;;;;;;;;;;5014398;28;20191;-43
2021/04/24 07:57:57;;;;;;;9.40;7.63;;;;;;;;;;5017451;28;20268;-43
2021/04/24 08:00:23;;;;;;;12.00;8.50;;;;;;;;;;5005610;28;20714;-44
2021/04/24 08:02:48;;;;;;;9.33;7.53;;;;;;;;;;4992248;28;20243;-43
2021/04/24 08:05:16;;;;;;;9.80;7.87;;;;;;;;;;4997725;28;20180;-44
2021/04/24 08:07:42;;;;;;;11.70;9.03;;;;;;;;;;4999293;28;20184;-44
2021/04/24 08:10:07;;;;;;;9.77;8.17;;;;;;;;;;4998620;28;20727;-43
2021/04/24 08:12:32;;;;;;;11.17;8.40;;;;;;;;;;5021249;28;20219;-43
2021/04/24 08:14:57;;;;;;;12.45;8.93;;;;;;;;;;5028026;28;20651;-43
2021/04/24 08:17:23;;;;;;;11.30;8.30;;;;;;;;;;5007604;28;20185;-43
2021/04/24 08:19:48;;;;;;;10.85;8.95;;;;;;;;;;5007929;28;20201;-43
2021/04/24 08:22:13;;;;;;;11.90;8.30;;;;;;;;;;5005524;28;20241;-43
2021/04/24 08:24:38;;;;;;;10.47;8.17;;;;;;;;;;5005632;28;20185;-43
2021/04/24 08:27:03;;;;;;;11.63;8.37;;;;;;;;;;5017269;28;20175;-43
2021/04/24 08:29:29;;;;;;;11.40;7.70;;;;;;;;;;5025829;28;20177;-43
2021/04/24 08:31:54;;;;;;;9.50;8.50;;;;;;;;;;5002117;28;20184;-42
2021/04/24 08:34:21;;;;;;;9.43;8.07;;;;;;;;;;5006807;28;20193;-45
2021/04/24 08:36:46;;;;;;;10.40;7.67;;;;;;;;;;5006432;28;20686;-42
2021/04/24 08:39:12;;;;;;;11.83;8.37;;;;;;;;;;5015004;28;20601;-43
2021/04/24 08:41:37;;;;;;;11.07;8.10;;;;;;;;;;5012408;28;20605;-43
2021/04/24 08:44:03;;;;;;;9.53;6.90;;;;;;;;;;5013908;28;20197;-44
2021/04/24 08:46:28;;;;;;;9.30;7.70;;;;;;;;;;5019200;28;20187;-43
2021/04/24 08:48:54;;;;;;;12.63;8.60;;;;;;;;;;5001744;28;20189;-43
2021/04/24 08:51:20;;;;;;;9.10;7.10;;;;;;;;;;5011115;28;20196;-44
2021/04/24 08:53:45;;;;;;;10.13;7.83;;;;;;;;;;5004929;28;20555;-43
2021/04/24 08:56:11;;;;;;;10.67;7.80;;;;;;;;;;5012470;28;20601;-44
2021/04/24 08:58:36;;;;;;;9.43;7.65;;;;;;;;;;5005120;28;20189;-44
2021/04/24 09:01:01;;;;;;;11.80;8.40;;;;;;;;;;5007695;28;20277;-44
2021/04/24 09:03:26;;;;;;;9.00;7.30;;;;;;;;;;5011437;28;20242;-43
2021/04/24 09:05:52;;;;;;;11.97;7.10;;;;;;;;;;5010850;28;20174;-44
2021/04/24 09:08:25;;;;;;;8.17;7.17;;;;;;;;;;5011877;28;20208;-44
2021/04/24 09:10:50;;;;;;;7.93;6.63;;;;;;;;;;4999426;28;20194;-43
2021/04/24 09:13:20;;;;;;;10.03;6.93;;;;;;;;;;5011211;28;21021;-43
2021/04/24 09:15:45;;;;;;;8.37;7.47;;;;;;;;;;5011241;28;20264;-44
2021/04/24 09:18:12;;;;;;;8.60;7.37;;;;;;;;;;5009998;28;20715;-43
2021/04/24 09:20:56;;;;;;;7.67;6.97;;;;;;;;;;5010513;28;20292;-43
2021/04/24 09:23:22;;;;;;;8.73;6.93;;;;;;;;;;5010785;28;20588;-43
2021/04/24 09:25:49;;;;;;;7.43;6.00;;;;;;;;;;5007322;28;20970;-44
2021/04/24 09:28:26;;;;;;;7.47;6.50;;;;;;;;;;5012365;28;20695;-44
2021/04/24 09:30:51;;;;;;;8.33;7.20;;;;;;;;;;5011533;28;21180;-44
2021/04/24 09:33:16;;;;;;;10.07;6.43;;;;;;;;;;5020860;28;20603;-44
2021/04/24 09:35:43;;;;;;;7.40;5.67;;;;;;;;;;5021383;28;20185;-44
2021/04/24 09:38:10;;;;;;;7.50;6.27;;;;;;;;;;5019403;28;20640;-44
2021/04/24 09:40:35;;;;;;;8.03;6.30;;;;;;;;;;5015856;28;20747;-44
2021/04/24 09:43:06;;;;;;;5.90;5.07;;;;;;;;;;5019944;28;20751;-44
2021/04/24 09:45:38;;;;;;;6.40;5.17;;;;;;;;;;5019249;28;20185;-44
2021/04/24 09:48:04;;;;;;;5.90;5.20;;;;;;;;;;5017746;28;20599;-44
2021/04/24 09:50:31;;;;;;;6.33;5.23;;;;;;;;;;5013271;28;20757;-44
2021/04/24 09:53:15;;;;;;;7.20;6.07;;;;;;;;;;5015454;28;20600;-44
2021/04/24 09:55:40;;;;;;;10.47;6.17;;;;;;;;;;5018927;28;20681;-45
2021/04/24 09:58:22;;;;;;;8.90;6.47;;;;;;;;;;5019872;28;20654;-44
2021/04/24 10:00:47;;;;;;;8.73;6.40;;;;;;;;;;5019160;28;20202;-45
2021/04/24 10:03:32;;;;;;;7.68;5.97;;;;;;;;;;5017188;28;20601;-44
2021/04/24 10:05:58;;;;;;;9.10;7.10;;;;;;;;;;5020745;28;20337;-45
2021/04/24 10:08:23;;;;;;;9.07;6.60;;;;;;;;;;5016891;28;21169;-43
2021/04/24 10:10:48;;;;;;;8.15;5.88;;;;;;;;;;5017188;28;20615;-43
2021/04/24 10:13:13;;;;;;;8.27;5.97;;;;;;;;;;5016549;28;20576;-44
2021/04/24 10:15:43;;;;;;;8.70;6.60;;;;;;;;;;5020611;28;20196;-44
2021/04/24 10:18:13;;;;;;;6.60;5.90;;;;;;;;;;5017158;28;20243;-44
2021/04/24 10:20:39;;;;;;;10.50;7.30;;;;;;;;;;5018224;28;20657;-42
2021/04/24 10:23:06;;;;;;;12.40;7.17;;;;;;;;;;5022066;28;20610;-43
2021/04/24 10:25:31;;;;;;;9.07;7.37;;;;;;;;;;5024281;28;20604;-43
2021/04/24 10:27:57;;;;;;;9.90;6.10;;;;;;;;;;5017370;28;20614;-44
2021/04/24 10:30:22;;;;;;;8.10;6.70;;;;;;;;;;5007199;28;20180;-43
2021/04/24 10:32:47;;;;;;;8.03;6.67;;;;;;;;;;5026938;28;20193;-43
2021/04/24 10:35:13;;;;;;;8.17;7.20;;;;;;;;;;5011892;28;20178;-43
2021/04/24 10:37:39;;;;;;;8.03;6.27;;;;;;;;;;5005793;28;20193;-43
2021/04/24 10:40:04;;;;;;;10.73;8.00;;;;;;;;;;5005463;28;20745;-43
2021/04/24 10:42:31;;;;;;;9.30;7.10;;;;;;;;;;5004584;28;20176;-43
2021/04/24 10:44:58;;;;;;;8.27;7.47;;;;;;;;;;5003898;28;20405;-43
2021/04/24 10:47:42;;;;;;;7.70;6.90;;;;;;;;;;5018991;28;20597;-43
2021/04/24 10:50:17;;;;;;;10.30;6.60;;;;;;;;;;5003699;28;20946;-43
2021/04/24 10:52:44;;;;;;;9.60;7.20;;;;;;;;;;5005339;28;20632;-43
2021/04/24 10:55:12;;;;;;;9.53;6.67;;;;;;;;;;5008113;28;20596;-43
2021/04/24 10:57:40;;;;;;;7.83;6.50;;;;;;;;;;5000583;28;20606;-43
2021/04/24 11:00:08;;;;;;;9.70;7.20;;;;;;;;;;5007647;28;20649;-43
2021/04/24 11:02:44;;;;;;;9.83;6.87;;;;;;;;;;5004177;28;20593;-43
2021/04/24 11:05:17;;;;;;;8.73;7.60;;;;;;;;;;5005336;28;20701;-43
2021/04/24 11:07:42;;;;;;;8.27;7.10;;;;;;;;;;5004748;28;22245;-45
2021/04/24 11:10:10;;;;;;;8.10;7.30;;;;;;;;;;4992149;28;21217;-44
2021/04/24 11:12:38;;;;;;;9.90;7.50;;;;;;;;;;5008201;28;20310;-43
2021/04/24 11:15:06;;;;;;;8.97;6.67;;;;;;;;;;5004674;28;20594;-43
2021/04/24 11:17:32;;;;;;;10.30;8.00;;;;;;;;;;5006111;28;20606;-44
2021/04/24 11:19:57;;;;;;;9.43;7.70;;;;;;;;;;5006928;28;20660;-44
2021/04/24 11:22:38;;;;;;;10.30;7.60;;;;;;;;;;4998651;28;20605;-43
2021/04/24 11:25:15;;;;;;;8.50;7.60;;;;;;;;;;4996911;28;20252;-44
2021/04/24 11:27:58;;;;;;;11.03;7.03;;;;;;;;;;4998927;28;20601;-44
2021/04/24 11:30:42;;;;;;;9.00;7.60;;;;;;;;;;5001864;28;20602;-44
2021/04/24 11:33:26;;;;;;;9.83;7.63;;;;;;;;;;4990140;28;20942;-44
2021/04/24 11:36:09;;;;;;;9.63;7.73;;;;;;;;;;4999249;28;20661;-44
2021/04/24 11:38:53;;;;;;;10.60;7.40;;;;;;;;;;4985654;28;20671;-43
2021/04/24 11:41:35;;;;;;;12.10;8.90;;;;;;;;;;5003652;28;20652;-43
2021/04/24 11:44:26;;;;;;;9.77;8.10;;;;;;;;;;5007871;28;20690;-44
2021/04/24 11:46:52;;;;;;;11.30;8.10;;;;;;;;;;5010622;28;20718;-43
2021/04/24 11:49:18;;;;;;;10.97;8.37;;;;;;;;;;4999017;28;21030;-44
2021/04/24 11:51:54;;;;;;;9.50;8.10;;;;;;;;;;4989291;28;20613;-44
2021/04/24 11:54:21;;;;;;;8.60;7.40;;;;;;;;;;5019261;28;20178;-45
2021/04/24 11:56:47;;;;;;;8.73;7.90;;;;;;;;;;5002777;28;21067;-44
2021/04/24 11:59:12;;;;;;;9.23;8.20;;;;;;;;;;5000298;28;20609;-44
2021/04/24 12:01:38;;;;;;;9.60;7.13;;;;;;;;;;5000670;28;20649;-45
2021/04/24 12:04:03;;;;;;;10.47;7.60;;;;;;;;;;5003976;28;20229;-44
2021/04/24 12:06:41;;;;;;;10.57;8.17;;;;;;;;;;5011618;28;20602;-45
2021/04/24 12:09:11;;;;;;;9.30;8.20;;;;;;;;;;4991521;28;20186;-44
2021/04/24 12:11:36;;;;;;;9.63;8.70;;;;;;;;;;5004115;28;20989;-45
2021/04/24 12:14:02;;;;;;;8.37;7.57;;;;;;;;;;4987448;28;20625;-45
2021/04/24 12:16:37;;;;;;;10.80;8.60;;;;;;;;;;5003170;28;20178;-44
2021/04/24 12:19:21;;;;;;;10.50;8.80;;;;;;;;;;5004972;28;20712;-44
2021/04/24 12:21:46;;;;;;;9.23;8.30;;;;;;;;;;4984553;28;20619;-44
2021/04/24 12:24:11;;;;;;;9.43;8.53;;;;;;;;;;4986780;28;20613;-44
2021/04/24 12:26:37;;;;;;;12.88;9.23;;;;;;;;;;4987590;28;20168;-44
2021/04/24 12:29:02;;;;;;;9.97;8.07;;;;;;;;;;4999847;28;20802;-44
2021/04/24 12:31:30;;;;;;;9.23;8.33;;;;;;;;;;4986275;28;20258;-44
2021/04/24 12:33:55;;;;;;;12.17;8.83;;;;;;;;;;4992121;28;20171;-44
2021/04/24 12:36:20;;;;;;;11.80;8.87;;;;;;;;;;4984073;28;20971;-43
2021/04/24 12:38:45;;;;;;;10.52;9.43;;;;;;;;;;4993958;28;20189;-44
2021/04/24 12:41:12;;;;;;;10.32;8.70;;;;;;;;;;4998533;28;20564;-44
2021/04/24 12:43:39;;;;;;;11.40;9.47;;;;;;;;;;5004347;28;20185;-42
2021/04/24 12:46:05;;;;;;;10.53;9.40;;;;;;;;;;4994708;28;20647;-44
2021/04/24 12:48:35;;;;;;;10.03;8.80;;;;;;;;;;5001618;28;20619;-43
2021/04/24 12:51:00;;;;;;;10.30;8.90;;;;;;;;;;5009351;28;20597;-44
2021/04/24 12:53:30;;;;;;;10.67;8.80;;;;;;;;;;5005124;28;21113;-43
2021/04/24 12:56:03;;;;;;;12.40;9.40;;;;;;;;;;5007830;28;20670;-43
2021/04/24 12:58:36;;;;;;;11.87;9.73;;;;;;;;;;5007403;28;20621;-44
2021/04/24 13:01:11;;;;;;;11.97;9.10;;;;;;;;;;5006479;28;20675;-44
2021/04/24 13:03:38;;;;;;;12.23;9.70;;;;;;;;;;5007752;28;20687;-44
2021/04/24 13:06:11;;;;;;;10.80;9.73;;;;;;;;;;5007455;28;20631;-44
2021/04/24 13:08:36;;;;;;;12.03;9.57;;;;;;;;;;5007146;28;20589;-44
2021/04/24 13:11:20;;;;;;;11.80;9.77;;;;;;;;;;5004738;28;21263;-45
2021/04/24 13:13:45;;;;;;;11.97;9.67;;;;;;;;;;5005332;28;20546;-44
2021/04/24 13:16:15;;;;;;;12.63;9.10;;;;;;;;;;5004280;28;20690;-45
2021/04/24 13:18:44;;;;;;;10.73;8.20;;;;;;;;;;5005368;28;20277;-44
2021/04/24 13:21:26;;;;;;;9.03;8.17;;;;;;;;;;4994893;28;20749;-44
2021/04/24 13:24:10;;;;;;;10.17;9.03;;;;;;;;;;5003654;28;20611;-44
2021/04/24 13:26:47;;;;;;;10.10;9.07;;;;;;;;;;5002083;28;20608;-44
2021/04/24 13:29:19;;;;;;;10.27;9.17;;;;;;;;;;5005031;28;21439;-44
2021/04/24 13:32:03;;;;;;;9.30;8.33;;;;;;;;;;4997306;28;20594;-44
2021/04/24 13:34:28;;;;;;;10.87;9.30;;;;;;;;;;5006991;28;20617;-43
2021/04/24 13:36:57;;;;;;;12.35;9.98;;;;;;;;;;5006635;28;20608;-43
2021/04/24 13:39:23;;;;;;;11.53;9.03;;;;;;;;;;5007265;28;20189;-44
2021/04/24 13:41:48;;;;;;;9.60;8.57;;;;;;;;;;5006494;28;20641;-44
2021/04/24 13:44:14;;;;;;;9.35;7.95;;;;;;;;;;5007527;28;20178;-44
2021/04/24 13:46:49;;;;;;;9.63;8.73;;;;;;;;;;5006938;28;20175;-44
2021/04/24 13:49:19;;;;;;;8.83;7.83;;;;;;;;;;5007381;28;20224;-44
2021/04/24 13:51:45;;;;;;;9.33;7.10;;;;;;;;;;5010055;28;21191;-43
2021/04/24 13:54:10;;;;;;;10.13;8.80;;;;;;;;;;5010893;28;20704;-43
2021/04/24 13:56:35;;;;;;;9.87;8.63;;;;;;;;;;5009549;28;20173;-44
2021/04/24 13:59:05;;;;;;;9.37;8.40;;;;;;;;;;5008373;28;20178;-43
2021/04/24 14:01:30;;;;;;;8.63;7.77;;;;;;;;;;5010166;28;20199;-44
2021/04/24 14:03:55;;;;;;;8.95;8.05;;;;;;;;;;5008757;28;20605;-44
2021/04/24 14:06:20;;;;;;;9.68;8.02;;;;;;;;;;5009978;28;20182;-44
2021/04/24 14:08:45;;;;;;;9.13;8.20;;;;;;;;;;5014881;28;20185;-44
2021/04/24 14:11:11;;;;;;;8.85;7.40;;;;;;;;;;5014138;28;20229;-43
2021/04/24 14:13:36;;;;;;;9.40;8.40;;;;;;;;;;5010981;28;20190;-43
2021/04/24 14:16:01;;;;;;;9.25;7.45;;;;;;;;;;5017366;28;20190;-44
2021/04/24 14:18:26;;;;;;;8.57;7.77;;;;;;;;;;5017907;28;20238;-44
2021/04/24 14:20:51;;;;;;;9.02;8.07;;;;;;;;;;5009596;28;20212;-43
2021/04/24 14:23:16;;;;;;;7.55;6.75;;;;;;;;;;5016563;28;20186;-44
2021/04/24 14:25:41;;;;;;;9.02;8.13;;;;;;;;;;5019757;28;20674;-44
2021/04/24 14:28:07;;;;;;;9.10;7.93;;;;;;;;;;5009209;28;20175;-43
2021/04/24 14:30:32;;;;;;;10.98;9.27;;;;;;;;;;5009032;28;20574;-44
2021/04/24 14:32:57;;;;;;;11.50;8.77;;;;;;;;;;5006998;28;20811;-44
2021/04/24 14:35:22;;;;;;;8.35;7.50;;;;;;;;;;5009226;28;20260;-45
2021/04/24 14:37:47;;;;;;;10.35;8.75;;;;;;;;;;5008814;28;20189;-44
2021/04/24 14:40:13;;;;;;;10.15;9.15;;;;;;;;;;5009517;28;20666;-45
2021/04/24 14:42:38;;;;;;;10.00;8.67;;;;;;;;;;5009324;28;20228;-44
2021/04/24 14:45:04;;;;;;;7.53;6.80;;;;;;;;;;5008977;28;20643;-44
2021/04/24 14:47:29;;;;;;;8.23;7.00;;;;;;;;;;5008852;28;20275;-44
2021/04/24 14:49:54;;;;;;;11.25;7.95;;;;;;;;;;5008530;28;20535;-44
2021/04/24 14:52:19;;;;;;;8.55;6.80;;;;;;;;;;5008550;28;20192;-44
2021/04/24 14:54:44;;;;;;;7.57;6.85;;;;;;;;;;5008519;28;20190;-44
2021/04/24 14:57:10;;;;;;;10.23;7.47;;;;;;;;;;5008276;28;20598;-44